Gluecksburg — 9HA3437 — position and weather

sailwx.info

Track history (hours):
 
Tides and Currents Weather Stations Pressure Air Temp Water Temp Dewpoint Dewpoint Depression Visibility Wind Speed Wind Dir Waves Ship Positions

Gluecksburg

Last reported at 2017-Sep-19 18:46 UTC. Time now 2017-Sep-20 02:08 UTC.
Position N 11°02' W 074°48'.

Length 176 m; draft 7.4 m.

Type: Cargo ship. MMSI: 229600000.

Date/timePositionNaut miles runAvg speedWind from/ knotsBaromVisibWave heightAir tempDewpointWater temp
2017-Sep-19 18:46N 11°02' W 074°48'310.0
2017-Sep-19 18:27N 11°03' W 074°50'410.3
2017-Sep-19 18:00N 11°07' W 074°53'  
2017-Sep-15 22:34N 25°27' W 079°40'117.7
2017-Sep-15 22:30N 25°28' W 079°41'815.7
2017-Sep-15 22:00N 25°35' W 079°43'815.7
2017-Sep-15 21:30N 25°39' W 079°51'815.7
2017-Sep-15 21:00N 25°43' W 079°58'713.5
2017-Sep-15 20:31N 25°46' W 080°05'4 8.2
2017-Sep-15 20:00N 25°46' W 080°10'1 1.0
2017-Sep-15 19:29N 25°46' W 080°10'0 0.0
2017-Sep-15 18:59N 25°46' W 080°10'0 0.0
2017-Sep-15 18:29N 25°46' W 080°10'0 0.0
2017-Sep-15 17:59N 25°46' W 080°10'0 0.0
2017-Sep-15 17:29N 25°46' W 080°10'0 0.0
2017-Sep-15 16:59N 25°46' W 080°10'0 0.0
2017-Sep-15 16:29N 25°46' W 080°10'0 0.0
2017-Sep-15 15:59N 25°46' W 080°10'0 0.0
2017-Sep-15 15:29N 25°46' W 080°10'0 0.0
2017-Sep-15 14:59N 25°46' W 080°10'0 0.0
2017-Sep-15 14:29N 25°46' W 080°10'0 0.0
2017-Sep-15 13:59N 25°46' W 080°10'0 0.0
2017-Sep-15 13:29N 25°46' W 080°10'0 0.0
2017-Sep-15 12:59N 25°46' W 080°10'0 0.0
2017-Sep-15 12:29N 25°46' W 080°10'0 0.0
2017-Sep-15 11:59N 25°46' W 080°10'0 0.0
2017-Sep-15 11:29N 25°46' W 080°10'0 0.0
2017-Sep-15 10:59N 25°46' W 080°10'0 0.0
2017-Sep-15 10:29N 25°46' W 080°10'0 0.0
2017-Sep-15 09:59N 25°46' W 080°10'0 0.0
2017-Sep-15 09:29N 25°46' W 080°10'0 0.0
2017-Sep-15 08:59N 25°46' W 080°10'0 0.0
2017-Sep-15 08:29N 25°46' W 080°10'0 0.0
2017-Sep-15 07:59N 25°46' W 080°10'0 0.0
2017-Sep-15 07:29N 25°46' W 080°10'0 0.0
2017-Sep-15 06:59N 25°46' W 080°10'0 0.0
2017-Sep-15 06:29N 25°46' W 080°10'0 0.0
2017-Sep-15 05:59N 25°46' W 080°10'0 0.0
2017-Sep-15 05:29N 25°46' W 080°10'0 0.0
2017-Sep-15 04:59N 25°46' W 080°10'0 0.0
2017-Sep-15 04:29N 25°46' W 080°10'0 0.0
2017-Sep-15 03:59N 25°46' W 080°10'0 0.0
2017-Sep-15 03:29N 25°46' W 080°10'0 0.0
2017-Sep-15 02:59N 25°46' W 080°10'0 0.0
2017-Sep-15 02:29N 25°46' W 080°10'0 0.0
2017-Sep-15 01:59N 25°46' W 080°10'0 0.0
2017-Sep-15 01:29N 25°46' W 080°10'0 0.0
2017-Sep-15 00:56N 25°46' W 080°10'0 0.0
2017-Sep-15 00:29N 25°46' W 080°10'0 0.0
2017-Sep-14 23:59N 25°46' W 080°10'1 2.6
2017-Sep-14 23:31N 25°46' W 080°09'4 8.8
2017-Sep-14 23:00N 25°46' W 080°04'2 3.4
2017-Sep-14 22:30N 25°48' W 080°03'2 4.1
2017-Sep-14 22:00N 25°50' W 080°04'1 2.1
2017-Sep-14 21:30N 25°49' W 080°03'1 2.4
2017-Sep-14 21:00N 25°48' W 080°03'1 2.3
2017-Sep-14 20:30N 25°47' W 080°02'1 2.0
2017-Sep-14 20:00N 25°46' W 080°02'3 6.6
2017-Sep-14 19:30N 25°45' W 079°58'510.9
2017-Sep-14 19:00N 25°42' W 079°53'611.5
2017-Sep-14 18:30N 25°39' W 079°48'713.5
2017-Sep-14 18:00N 25°34' W 079°42'815.7
2017-Sep-14 17:30N 25°27' W 079°40'  
Track history (hours):
 
Tides and Currents Weather Stations Pressure Air Temp Water Temp Dewpoint Dewpoint Depression Visibility Wind Speed Wind Dir Waves Ship Positions

Gluecksburg

Last reported at 2017-Sep-19 18:46 UTC. Time now 2017-Sep-20 02:08 UTC.
Position N 11°02' W 074°48'.

Length 176 m; draft 7.4 m.

Type: Cargo ship. MMSI: 229600000.

Date/timePositionNaut miles runAvg speedWind from/ knotsBaromVisibWave heightAir tempDewpointWater temp
2017-Sep-19 18:46N 11°02' W 074°48'310.0
2017-Sep-19 18:27N 11°03' W 074°50'410.3
2017-Sep-19 18:00N 11°07' W 074°53'  
2017-Sep-15 22:34N 25°27' W 079°40'117.7
2017-Sep-15 22:30N 25°28' W 079°41'815.7
2017-Sep-15 22:00N 25°35' W 079°43'815.7
2017-Sep-15 21:30N 25°39' W 079°51'815.7
2017-Sep-15 21:00N 25°43' W 079°58'713.5
2017-Sep-15 20:31N 25°46' W 080°05'4 8.2
2017-Sep-15 20:00N 25°46' W 080°10'1 1.0
2017-Sep-15 19:29N 25°46' W 080°10'0 0.0
2017-Sep-15 18:59N 25°46' W 080°10'0 0.0
2017-Sep-15 18:29N 25°46' W 080°10'0 0.0
2017-Sep-15 17:59N 25°46' W 080°10'0 0.0
2017-Sep-15 17:29N 25°46' W 080°10'0 0.0
2017-Sep-15 16:59N 25°46' W 080°10'0 0.0
2017-Sep-15 16:29N 25°46' W 080°10'0 0.0
2017-Sep-15 15:59N 25°46' W 080°10'0 0.0
2017-Sep-15 15:29N 25°46' W 080°10'0 0.0
2017-Sep-15 14:59N 25°46' W 080°10'0 0.0
2017-Sep-15 14:29N 25°46' W 080°10'0 0.0
2017-Sep-15 13:59N 25°46' W 080°10'0 0.0
2017-Sep-15 13:29N 25°46' W 080°10'0 0.0
2017-Sep-15 12:59N 25°46' W 080°10'0 0.0
2017-Sep-15 12:29N 25°46' W 080°10'0 0.0
2017-Sep-15 11:59N 25°46' W 080°10'0 0.0
2017-Sep-15 11:29N 25°46' W 080°10'0 0.0
2017-Sep-15 10:59N 25°46' W 080°10'0 0.0
2017-Sep-15 10:29N 25°46' W 080°10'0 0.0
2017-Sep-15 09:59N 25°46' W 080°10'0 0.0
2017-Sep-15 09:29N 25°46' W 080°10'0 0.0
2017-Sep-15 08:59N 25°46' W 080°10'0 0.0
2017-Sep-15 08:29N 25°46' W 080°10'0 0.0
2017-Sep-15 07:59N 25°46' W 080°10'0 0.0
2017-Sep-15 07:29N 25°46' W 080°10'0 0.0
2017-Sep-15 06:59N 25°46' W 080°10'0 0.0
2017-Sep-15 06:29N 25°46' W 080°10'0 0.0
2017-Sep-15 05:59N 25°46' W 080°10'0 0.0
2017-Sep-15 05:29N 25°46' W 080°10'0 0.0
2017-Sep-15 04:59N 25°46' W 080°10'0 0.0
2017-Sep-15 04:29N 25°46' W 080°10'0 0.0
2017-Sep-15 03:59N 25°46' W 080°10'0 0.0
2017-Sep-15 03:29N 25°46' W 080°10'0 0.0
2017-Sep-15 02:59N 25°46' W 080°10'0 0.0
2017-Sep-15 02:29N 25°46' W 080°10'0 0.0
2017-Sep-15 01:59N 25°46' W 080°10'0 0.0
2017-Sep-15 01:29N 25°46' W 080°10'0 0.0
2017-Sep-15 00:56N 25°46' W 080°10'0 0.0
2017-Sep-15 00:29N 25°46' W 080°10'0 0.0
2017-Sep-14 23:59N 25°46' W 080°10'1 2.6
2017-Sep-14 23:31N 25°46' W 080°09'4 8.8
2017-Sep-14 23:00N 25°46' W 080°04'2 3.4
2017-Sep-14 22:30N 25°48' W 080°03'2 4.1
2017-Sep-14 22:00N 25°50' W 080°04'1 2.1
2017-Sep-14 21:30N 25°49' W 080°03'1 2.4
2017-Sep-14 21:00N 25°48' W 080°03'1 2.3
2017-Sep-14 20:30N 25°47' W 080°02'1 2.0
2017-Sep-14 20:00N 25°46' W 080°02'3 6.6
2017-Sep-14 19:30N 25°45' W 079°58'510.9
2017-Sep-14 19:00N 25°42' W 079°53'611.5
2017-Sep-14 18:30N 25°39' W 079°48'713.5
2017-Sep-14 18:00N 25°34' W 079°42'815.7
2017-Sep-14 17:30N 25°27' W 079°40'  

Dump ship's entire track history